sensor_id;sensor_type;location;lat;lon;timestamp;P1;durP1;ratioP1;P2;durP2;ratioP2
19951;SDS011;10137;49.406;19.484;2023-04-06T00:02:09;30.83;;;16.37;;
19951;SDS011;10137;49.406;19.484;2023-04-06T00:04:36;20.87;;;11.23;;
19951;SDS011;10137;49.406;19.484;2023-04-06T00:07:04;17.23;;;9.70;;
19951;SDS011;10137;49.406;19.484;2023-04-06T00:09:33;17.70;;;9.23;;
19951;SDS011;10137;49.406;19.484;2023-04-06T00:12:02;19.50;;;9.23;;
19951;SDS011;10137;49.406;19.484;2023-04-06T00:14:31;18.03;;;9.27;;
19951;SDS011;10137;49.406;19.484;2023-04-06T00:16:59;15.90;;;9.20;;
19951;SDS011;10137;49.406;19.484;2023-04-06T00:19:28;21.87;;;9.67;;
19951;SDS011;10137;49.406;19.484;2023-04-06T00:21:55;16.17;;;9.00;;
19951;SDS011;10137;49.406;19.484;2023-04-06T00:24:23;17.97;;;9.33;;
19951;SDS011;10137;49.406;19.484;2023-04-06T00:26:51;18.47;;;9.17;;
19951;SDS011;10137;49.406;19.484;2023-04-06T00:29:21;19.43;;;10.40;;
19951;SDS011;10137;49.406;19.484;2023-04-06T00:31:49;18.50;;;9.17;;
19951;SDS011;10137;49.406;19.484;2023-04-06T00:34:18;18.30;;;8.97;;
19951;SDS011;10137;49.406;19.484;2023-04-06T00:36:46;20.53;;;10.40;;
19951;SDS011;10137;49.406;19.484;2023-04-06T00:39:18;18.67;;;9.37;;
19951;SDS011;10137;49.406;19.484;2023-04-06T00:41:49;16.07;;;8.77;;
19951;SDS011;10137;49.406;19.484;2023-04-06T00:44:17;20.53;;;10.47;;
19951;SDS011;10137;49.406;19.484;2023-04-06T00:46:48;19.20;;;9.73;;
19951;SDS011;10137;49.406;19.484;2023-04-06T00:49:16;17.37;;;10.23;;
19951;SDS011;10137;49.406;19.484;2023-04-06T00:51:44;21.60;;;11.00;;
19951;SDS011;10137;49.406;19.484;2023-04-06T00:54:12;23.27;;;12.00;;
19951;SDS011;10137;49.406;19.484;2023-04-06T00:56:41;23.23;;;12.03;;
19951;SDS011;10137;49.406;19.484;2023-04-06T00:59:10;24.27;;;11.73;;
19951;SDS011;10137;49.406;19.484;2023-04-06T01:01:38;23.33;;;11.90;;
19951;SDS011;10137;49.406;19.484;2023-04-06T01:04:08;21.00;;;12.07;;
19951;SDS011;10137;49.406;19.484;2023-04-06T01:06:37;23.37;;;12.73;;
19951;SDS011;10137;49.406;19.484;2023-04-06T01:09:05;35.10;;;16.33;;
19951;SDS011;10137;49.406;19.484;2023-04-06T01:11:33;29.50;;;15.43;;
19951;SDS011;10137;49.406;19.484;2023-04-06T01:14:03;23.57;;;12.80;;
19951;SDS011;10137;49.406;19.484;2023-04-06T01:16:31;20.83;;;11.90;;
19951;SDS011;10137;49.406;19.484;2023-04-06T01:19:00;18.13;;;11.40;;
19951;SDS011;10137;49.406;19.484;2023-04-06T01:21:30;21.53;;;12.33;;
19951;SDS011;10137;49.406;19.484;2023-04-06T01:24:00;19.97;;;11.37;;
19951;SDS011;10137;49.406;19.484;2023-04-06T01:26:28;21.27;;;11.40;;
19951;SDS011;10137;49.406;19.484;2023-04-06T01:28:56;22.27;;;11.87;;
19951;SDS011;10137;49.406;19.484;2023-04-06T01:31:24;19.77;;;10.57;;
19951;SDS011;10137;49.406;19.484;2023-04-06T01:33:53;20.93;;;11.33;;
19951;SDS011;10137;49.406;19.484;2023-04-06T01:36:22;21.87;;;10.97;;
19951;SDS011;10137;49.406;19.484;2023-04-06T01:38:51;20.77;;;10.57;;
19951;SDS011;10137;49.406;19.484;2023-04-06T01:41:20;21.53;;;11.50;;
19951;SDS011;10137;49.406;19.484;2023-04-06T01:43:48;21.00;;;11.13;;
19951;SDS011;10137;49.406;19.484;2023-04-06T01:46:20;21.50;;;11.47;;
19951;SDS011;10137;49.406;19.484;2023-04-06T01:48:47;26.13;;;12.90;;
19951;SDS011;10137;49.406;19.484;2023-04-06T01:51:16;25.37;;;13.10;;
19951;SDS011;10137;49.406;19.484;2023-04-06T01:53:44;23.37;;;12.53;;
19951;SDS011;10137;49.406;19.484;2023-04-06T01:56:14;24.47;;;13.03;;
19951;SDS011;10137;49.406;19.484;2023-04-06T01:58:44;26.60;;;13.37;;
19951;SDS011;10137;49.406;19.484;2023-04-06T02:01:12;23.43;;;13.50;;
19951;SDS011;10137;49.406;19.484;2023-04-06T02:03:41;25.43;;;13.47;;
19951;SDS011;10137;49.406;19.484;2023-04-06T02:06:09;23.13;;;13.37;;
19951;SDS011;10137;49.406;19.484;2023-04-06T02:08:37;26.77;;;13.97;;
19951;SDS011;10137;49.406;19.484;2023-04-06T02:11:06;27.03;;;13.37;;
19951;SDS011;10137;49.406;19.484;2023-04-06T02:13:34;23.53;;;12.67;;
19951;SDS011;10137;49.406;19.484;2023-04-06T02:16:04;25.30;;;12.50;;
19951;SDS011;10137;49.406;19.484;2023-04-06T02:18:32;23.90;;;12.53;;
19951;SDS011;10137;49.406;19.484;2023-04-06T02:21:01;24.40;;;13.37;;
19951;SDS011;10137;49.406;19.484;2023-04-06T02:23:29;26.57;;;13.13;;
19951;SDS011;10137;49.406;19.484;2023-04-06T02:25:57;26.87;;;12.87;;
19951;SDS011;10137;49.406;19.484;2023-04-06T02:28:25;23.23;;;12.57;;
19951;SDS011;10137;49.406;19.484;2023-04-06T02:30:53;25.30;;;12.70;;
19951;SDS011;10137;49.406;19.484;2023-04-06T02:33:23;24.50;;;12.80;;
19951;SDS011;10137;49.406;19.484;2023-04-06T02:35:52;26.07;;;13.03;;
19951;SDS011;10137;49.406;19.484;2023-04-06T02:38:20;27.77;;;12.67;;
19951;SDS011;10137;49.406;19.484;2023-04-06T02:40:48;26.37;;;12.40;;
19951;SDS011;10137;49.406;19.484;2023-04-06T02:43:16;24.87;;;13.13;;
19951;SDS011;10137;49.406;19.484;2023-04-06T02:45:46;23.90;;;13.13;;
19951;SDS011;10137;49.406;19.484;2023-04-06T02:48:14;25.70;;;14.50;;
19951;SDS011;10137;49.406;19.484;2023-04-06T02:50:44;32.67;;;15.43;;
19951;SDS011;10137;49.406;19.484;2023-04-06T02:53:12;32.70;;;16.30;;
19951;SDS011;10137;49.406;19.484;2023-04-06T02:55:41;34.00;;;15.57;;
19951;SDS011;10137;49.406;19.484;2023-04-06T02:58:09;32.37;;;14.50;;
19951;SDS011;10137;49.406;19.484;2023-04-06T03:00:36;37.67;;;14.40;;
19951;SDS011;10137;49.406;19.484;2023-04-06T03:03:05;26.63;;;14.03;;
19951;SDS011;10137;49.406;19.484;2023-04-06T03:05:34;28.93;;;13.97;;
19951;SDS011;10137;49.406;19.484;2023-04-06T03:08:04;30.27;;;14.83;;
19951;SDS011;10137;49.406;19.484;2023-04-06T03:10:32;28.87;;;13.77;;
19951;SDS011;10137;49.406;19.484;2023-04-06T03:13:00;24.93;;;13.00;;
19951;SDS011;10137;49.406;19.484;2023-04-06T03:15:28;27.47;;;13.40;;
19951;SDS011;10137;49.406;19.484;2023-04-06T03:17:56;22.83;;;12.40;;
19951;SDS011;10137;49.406;19.484;2023-04-06T03:20:25;26.97;;;13.50;;
19951;SDS011;10137;49.406;19.484;2023-04-06T03:22:53;27.83;;;12.97;;
19951;SDS011;10137;49.406;19.484;2023-04-06T03:25:22;22.00;;;12.10;;
19951;SDS011;10137;49.406;19.484;2023-04-06T03:27:51;26.60;;;12.00;;
19951;SDS011;10137;49.406;19.484;2023-04-06T03:30:19;24.03;;;12.23;;
19951;SDS011;10137;49.406;19.484;2023-04-06T03:32:47;21.13;;;11.63;;
19951;SDS011;10137;49.406;19.484;2023-04-06T03:35:15;23.23;;;11.50;;
19951;SDS011;10137;49.406;19.484;2023-04-06T03:37:43;26.10;;;12.73;;
19951;SDS011;10137;49.406;19.484;2023-04-06T03:40:11;25.10;;;11.90;;
19951;SDS011;10137;49.406;19.484;2023-04-06T03:42:41;23.13;;;11.60;;
19951;SDS011;10137;49.406;19.484;2023-04-06T03:45:10;23.10;;;12.13;;
19951;SDS011;10137;49.406;19.484;2023-04-06T03:47:39;19.97;;;10.73;;
19951;SDS011;10137;49.406;19.484;2023-04-06T03:50:07;25.57;;;11.97;;
19951;SDS011;10137;49.406;19.484;2023-04-06T03:52:36;22.63;;;12.27;;
19951;SDS011;10137;49.406;19.484;2023-04-06T03:55:04;24.83;;;12.80;;
19951;SDS011;10137;49.406;19.484;2023-04-06T03:57:33;22.57;;;10.97;;
19951;SDS011;10137;49.406;19.484;2023-04-06T04:00:03;25.03;;;11.87;;
19951;SDS011;10137;49.406;19.484;2023-04-06T04:02:34;21.63;;;11.87;;
19951;SDS011;10137;49.406;19.484;2023-04-06T04:05:03;25.20;;;12.53;;
19951;SDS011;10137;49.406;19.484;2023-04-06T04:07:31;21.90;;;12.07;;
19951;SDS011;10137;49.406;19.484;2023-04-06T04:09:59;23.40;;;12.50;;
19951;SDS011;10137;49.406;19.484;2023-04-06T04:12:27;23.03;;;11.07;;
19951;SDS011;10137;49.406;19.484;2023-04-06T04:14:56;26.63;;;11.17;;
19951;SDS011;10137;49.406;19.484;2023-04-06T04:17:24;20.90;;;11.30;;
19951;SDS011;10137;49.406;19.484;2023-04-06T04:19:55;29.43;;;13.97;;
19951;SDS011;10137;49.406;19.484;2023-04-06T04:22:23;34.23;;;14.37;;
19951;SDS011;10137;49.406;19.484;2023-04-06T04:24:52;37.40;;;15.40;;
19951;SDS011;10137;49.406;19.484;2023-04-06T04:27:20;36.80;;;15.43;;
19951;SDS011;10137;49.406;19.484;2023-04-06T04:29:48;36.07;;;15.77;;
19951;SDS011;10137;49.406;19.484;2023-04-06T04:32:16;31.37;;;14.93;;
19951;SDS011;10137;49.406;19.484;2023-04-06T04:34:46;28.63;;;14.93;;
19951;SDS011;10137;49.406;19.484;2023-04-06T04:37:15;31.10;;;13.63;;
19951;SDS011;10137;49.406;19.484;2023-04-06T04:39:44;27.63;;;12.80;;
19951;SDS011;10137;49.406;19.484;2023-04-06T04:42:15;29.40;;;12.13;;
19951;SDS011;10137;49.406;19.484;2023-04-06T04:44:44;26.63;;;11.00;;
19951;SDS011;10137;49.406;19.484;2023-04-06T04:47:11;32.20;;;12.90;;
19951;SDS011;10137;49.406;19.484;2023-04-06T04:49:40;32.53;;;15.57;;
19951;SDS011;10137;49.406;19.484;2023-04-06T04:52:09;25.13;;;12.53;;
19951;SDS011;10137;49.406;19.484;2023-04-06T04:54:38;23.53;;;11.50;;
19951;SDS011;10137;49.406;19.484;2023-04-06T04:57:07;19.77;;;10.03;;
19951;SDS011;10137;49.406;19.484;2023-04-06T04:59:35;23.37;;;10.73;;
19951;SDS011;10137;49.406;19.484;2023-04-06T05:02:03;21.07;;;10.47;;
19951;SDS011;10137;49.406;19.484;2023-04-06T05:04:32;22.33;;;10.83;;
19951;SDS011;10137;49.406;19.484;2023-04-06T05:07:04;17.47;;;10.07;;
19951;SDS011;10137;49.406;19.484;2023-04-06T05:09:34;23.13;;;11.57;;
19951;SDS011;10137;49.406;19.484;2023-04-06T05:12:03;22.17;;;11.60;;
19951;SDS011;10137;49.406;19.484;2023-04-06T05:14:31;31.73;;;17.40;;
19951;SDS011;10137;49.406;19.484;2023-04-06T05:16:59;24.00;;;12.03;;
19951;SDS011;10137;49.406;19.484;2023-04-06T05:19:28;15.90;;;9.63;;
19951;SDS011;10137;49.406;19.484;2023-04-06T05:21:57;22.20;;;10.30;;
19951;SDS011;10137;49.406;19.484;2023-04-06T05:24:26;22.03;;;9.90;;
19951;SDS011;10137;49.406;19.484;2023-04-06T05:26:55;20.70;;;10.50;;
19951;SDS011;10137;49.406;19.484;2023-04-06T05:29:23;28.17;;;13.00;;
19951;SDS011;10137;49.406;19.484;2023-04-06T05:31:52;24.30;;;12.40;;
19951;SDS011;10137;49.406;19.484;2023-04-06T05:34:20;22.13;;;11.87;;
19951;SDS011;10137;49.406;19.484;2023-04-06T05:36:49;16.40;;;10.13;;
19951;SDS011;10137;49.406;19.484;2023-04-06T05:39:17;19.60;;;10.17;;
19951;SDS011;10137;49.406;19.484;2023-04-06T05:41:45;20.83;;;9.80;;
19951;SDS011;10137;49.406;19.484;2023-04-06T05:44:15;21.27;;;10.93;;
19951;SDS011;10137;49.406;19.484;2023-04-06T05:46:43;25.00;;;10.87;;
19951;SDS011;10137;49.406;19.484;2023-04-06T05:49:12;46.53;;;20.83;;
19951;SDS011;10137;49.406;19.484;2023-04-06T05:51:40;45.63;;;21.73;;
19951;SDS011;10137;49.406;19.484;2023-04-06T05:54:09;48.17;;;20.10;;
19951;SDS011;10137;49.406;19.484;2023-04-06T05:56:37;43.80;;;21.57;;
19951;SDS011;10137;49.406;19.484;2023-04-06T05:59:05;29.47;;;13.63;;
19951;SDS011;10137;49.406;19.484;2023-04-06T06:01:35;24.97;;;14.10;;
19951;SDS011;10137;49.406;19.484;2023-04-06T06:04:05;20.00;;;11.90;;
19951;SDS011;10137;49.406;19.484;2023-04-06T06:06:33;30.03;;;15.23;;
19951;SDS011;10137;49.406;19.484;2023-04-06T06:09:02;21.17;;;12.10;;
19951;SDS011;10137;49.406;19.484;2023-04-06T06:11:30;21.47;;;12.33;;
19951;SDS011;10137;49.406;19.484;2023-04-06T06:14:00;23.77;;;12.63;;
19951;SDS011;10137;49.406;19.484;2023-04-06T06:16:28;21.53;;;11.53;;
19951;SDS011;10137;49.406;19.484;2023-04-06T06:18:57;22.77;;;13.50;;
19951;SDS011;10137;49.406;19.484;2023-04-06T06:21:26;17.63;;;9.20;;
19951;SDS011;10137;49.406;19.484;2023-04-06T06:23:54;19.77;;;9.63;;
19951;SDS011;10137;49.406;19.484;2023-04-06T06:26:23;14.70;;;8.50;;
19951;SDS011;10137;49.406;19.484;2023-04-06T06:28:51;15.03;;;8.93;;
19951;SDS011;10137;49.406;19.484;2023-04-06T06:31:20;12.80;;;7.77;;
19951;SDS011;10137;49.406;19.484;2023-04-06T06:33:49;13.67;;;8.83;;
19951;SDS011;10137;49.406;19.484;2023-04-06T06:36:19;15.20;;;7.87;;
19951;SDS011;10137;49.406;19.484;2023-04-06T06:38:47;13.93;;;7.77;;
19951;SDS011;10137;49.406;19.484;2023-04-06T06:41:15;20.43;;;9.53;;
19951;SDS011;10137;49.406;19.484;2023-04-06T06:43:44;20.17;;;7.73;;
19951;SDS011;10137;49.406;19.484;2023-04-06T06:46:12;13.17;;;7.50;;
19951;SDS011;10137;49.406;19.484;2023-04-06T06:48:40;28.90;;;14.27;;
19951;SDS011;10137;49.406;19.484;2023-04-06T06:51:08;66.47;;;25.43;;
19951;SDS011;10137;49.406;19.484;2023-04-06T06:53:39;44.40;;;20.20;;
19951;SDS011;10137;49.406;19.484;2023-04-06T06:56:07;20.73;;;9.83;;
19951;SDS011;10137;49.406;19.484;2023-04-06T06:58:36;22.20;;;8.63;;
19951;SDS011;10137;49.406;19.484;2023-04-06T07:01:04;19.00;;;8.00;;
19951;SDS011;10137;49.406;19.484;2023-04-06T07:03:33;18.57;;;8.87;;
19951;SDS011;10137;49.406;19.484;2023-04-06T07:06:02;19.83;;;10.23;;
19951;SDS011;10137;49.406;19.484;2023-04-06T07:08:30;19.97;;;10.07;;
19951;SDS011;10137;49.406;19.484;2023-04-06T07:11:00;18.83;;;8.43;;
19951;SDS011;10137;49.406;19.484;2023-04-06T07:13:28;13.63;;;7.67;;
19951;SDS011;10137;49.406;19.484;2023-04-06T07:15:58;15.23;;;7.33;;
19951;SDS011;10137;49.406;19.484;2023-04-06T07:18:26;13.53;;;7.97;;
19951;SDS011;10137;49.406;19.484;2023-04-06T07:20:55;18.17;;;8.43;;
19951;SDS011;10137;49.406;19.484;2023-04-06T07:23:24;33.33;;;8.73;;
19951;SDS011;10137;49.406;19.484;2023-04-06T07:25:52;12.90;;;7.17;;
19951;SDS011;10137;49.406;19.484;2023-04-06T07:28:22;15.17;;;7.73;;
19951;SDS011;10137;49.406;19.484;2023-04-06T07:30:53;11.77;;;6.43;;
19951;SDS011;10137;49.406;19.484;2023-04-06T07:33:21;19.13;;;8.10;;
19951;SDS011;10137;49.406;19.484;2023-04-06T07:35:51;16.20;;;7.70;;
19951;SDS011;10137;49.406;19.484;2023-04-06T07:38:19;11.30;;;6.00;;
19951;SDS011;10137;49.406;19.484;2023-04-06T07:40:47;13.03;;;7.17;;
19951;SDS011;10137;49.406;19.484;2023-04-06T07:43:16;10.53;;;5.27;;
19951;SDS011;10137;49.406;19.484;2023-04-06T07:45:45;7.60;;;5.43;;
19951;SDS011;10137;49.406;19.484;2023-04-06T07:48:13;16.37;;;8.80;;
19951;SDS011;10137;49.406;19.484;2023-04-06T07:50:42;15.40;;;8.10;;
19951;SDS011;10137;49.406;19.484;2023-04-06T07:53:11;14.57;;;7.97;;
19951;SDS011;10137;49.406;19.484;2023-04-06T07:55:39;11.20;;;6.43;;
19951;SDS011;10137;49.406;19.484;2023-04-06T07:58:07;11.13;;;6.23;;
19951;SDS011;10137;49.406;19.484;2023-04-06T08:00:35;9.70;;;5.73;;
19951;SDS011;10137;49.406;19.484;2023-04-06T08:03:05;10.33;;;5.80;;
19951;SDS011;10137;49.406;19.484;2023-04-06T08:05:33;7.87;;;5.00;;
19951;SDS011;10137;49.406;19.484;2023-04-06T08:08:01;11.83;;;6.10;;
19951;SDS011;10137;49.406;19.484;2023-04-06T08:10:30;16.03;;;5.57;;
19951;SDS011;10137;49.406;19.484;2023-04-06T08:12:58;13.37;;;6.13;;
19951;SDS011;10137;49.406;19.484;2023-04-06T08:15:27;77.67;;;25.30;;
19951;SDS011;10137;49.406;19.484;2023-04-06T08:17:55;34.93;;;10.37;;
19951;SDS011;10137;49.406;19.484;2023-04-06T08:20:25;15.07;;;6.13;;
19951;SDS011;10137;49.406;19.484;2023-04-06T08:22:52;17.87;;;8.30;;
19951;SDS011;10137;49.406;19.484;2023-04-06T08:25:23;10.80;;;5.33;;
19951;SDS011;10137;49.406;19.484;2023-04-06T08:27:53;10.73;;;6.03;;
19951;SDS011;10137;49.406;19.484;2023-04-06T08:30:22;17.37;;;6.20;;
19951;SDS011;10137;49.406;19.484;2023-04-06T08:32:50;10.00;;;5.70;;
19951;SDS011;10137;49.406;19.484;2023-04-06T08:35:18;9.90;;;5.37;;
19951;SDS011;10137;49.406;19.484;2023-04-06T08:37:48;10.13;;;5.83;;
19951;SDS011;10137;49.406;19.484;2023-04-06T08:40:17;13.90;;;8.77;;
19951;SDS011;10137;49.406;19.484;2023-04-06T08:42:48;12.07;;;6.37;;
19951;SDS011;10137;49.406;19.484;2023-04-06T08:45:18;15.50;;;8.13;;
19951;SDS011;10137;49.406;19.484;2023-04-06T08:47:48;10.67;;;6.07;;
19951;SDS011;10137;49.406;19.484;2023-04-06T08:50:18;11.00;;;6.40;;
19951;SDS011;10137;49.406;19.484;2023-04-06T08:52:47;11.23;;;6.30;;
19951;SDS011;10137;49.406;19.484;2023-04-06T08:55:17;14.50;;;6.13;;
19951;SDS011;10137;49.406;19.484;2023-04-06T08:57:45;28.53;;;11.37;;
19951;SDS011;10137;49.406;19.484;2023-04-06T09:00:15;17.40;;;9.10;;
19951;SDS011;10137;49.406;19.484;2023-04-06T09:02:45;11.70;;;6.30;;
19951;SDS011;10137;49.406;19.484;2023-04-06T09:05:14;11.20;;;6.27;;
19951;SDS011;10137;49.406;19.484;2023-04-06T09:07:43;11.83;;;5.43;;
19951;SDS011;10137;49.406;19.484;2023-04-06T09:10:13;10.43;;;5.90;;
19951;SDS011;10137;49.406;19.484;2023-04-06T09:12:43;12.70;;;6.53;;
19951;SDS011;10137;49.406;19.484;2023-04-06T09:15:18;10.87;;;6.33;;
19951;SDS011;10137;49.406;19.484;2023-04-06T09:17:46;17.10;;;7.97;;
19951;SDS011;10137;49.406;19.484;2023-04-06T09:20:15;16.37;;;7.57;;
19951;SDS011;10137;49.406;19.484;2023-04-06T09:22:52;13.90;;;8.67;;
19951;SDS011;10137;49.406;19.484;2023-04-06T09:25:22;11.63;;;7.63;;
19951;SDS011;10137;49.406;19.484;2023-04-06T09:28:02;15.73;;;8.70;;
19951;SDS011;10137;49.406;19.484;2023-04-06T09:30:33;14.33;;;10.47;;
19951;SDS011;10137;49.406;19.484;2023-04-06T09:33:02;20.43;;;8.57;;
19951;SDS011;10137;49.406;19.484;2023-04-06T09:35:31;27.57;;;9.23;;
19951;SDS011;10137;49.406;19.484;2023-04-06T09:37:59;16.47;;;8.30;;
19951;SDS011;10137;49.406;19.484;2023-04-06T09:40:48;17.40;;;8.50;;
19951;SDS011;10137;49.406;19.484;2023-04-06T09:43:23;18.30;;;8.43;;
19951;SDS011;10137;49.406;19.484;2023-04-06T09:45:52;19.17;;;9.27;;
19951;SDS011;10137;49.406;19.484;2023-04-06T09:48:20;12.57;;;7.50;;
19951;SDS011;10137;49.406;19.484;2023-04-06T09:50:49;24.07;;;11.90;;
19951;SDS011;10137;49.406;19.484;2023-04-06T09:53:21;15.40;;;8.07;;
19951;SDS011;10137;49.406;19.484;2023-04-06T09:55:57;19.83;;;7.83;;
19951;SDS011;10137;49.406;19.484;2023-04-06T09:58:32;16.03;;;7.23;;
19951;SDS011;10137;49.406;19.484;2023-04-06T10:01:05;12.77;;;8.40;;
19951;SDS011;10137;49.406;19.484;2023-04-06T10:03:40;19.43;;;8.33;;
19951;SDS011;10137;49.406;19.484;2023-04-06T10:06:15;14.00;;;8.30;;
19951;SDS011;10137;49.406;19.484;2023-04-06T10:08:54;16.13;;;9.50;;
19951;SDS011;10137;49.406;19.484;2023-04-06T10:11:26;13.23;;;6.97;;
19951;SDS011;10137;49.406;19.484;2023-04-06T10:13:55;11.40;;;6.30;;
19951;SDS011;10137;49.406;19.484;2023-04-06T10:16:24;14.00;;;6.83;;
19951;SDS011;10137;49.406;19.484;2023-04-06T10:18:55;21.83;;;10.17;;
19951;SDS011;10137;49.406;19.484;2023-04-06T10:21:26;25.17;;;9.43;;
19951;SDS011;10137;49.406;19.484;2023-04-06T10:23:58;17.83;;;9.80;;
19951;SDS011;10137;49.406;19.484;2023-04-06T10:26:30;24.93;;;12.27;;
19951;SDS011;10137;49.406;19.484;2023-04-06T10:29:02;21.97;;;10.70;;
19951;SDS011;10137;49.406;19.484;2023-04-06T10:31:32;21.83;;;11.47;;
19951;SDS011;10137;49.406;19.484;2023-04-06T10:34:00;37.43;;;12.87;;
19951;SDS011;10137;49.406;19.484;2023-04-06T10:36:34;18.10;;;9.93;;
19951;SDS011;10137;49.406;19.484;2023-04-06T10:39:03;25.77;;;12.60;;
19951;SDS011;10137;49.406;19.484;2023-04-06T10:41:40;20.23;;;11.03;;
19951;SDS011;10137;49.406;19.484;2023-04-06T10:44:17;16.00;;;10.50;;
19951;SDS011;10137;49.406;19.484;2023-04-06T10:47:00;18.47;;;9.80;;
19951;SDS011;10137;49.406;19.484;2023-04-06T10:49:29;13.90;;;8.57;;
19951;SDS011;10137;49.406;19.484;2023-04-06T10:51:57;13.83;;;8.30;;
19951;SDS011;10137;49.406;19.484;2023-04-06T10:54:26;17.23;;;8.60;;
19951;SDS011;10137;49.406;19.484;2023-04-06T10:57:02;11.23;;;7.13;;
19951;SDS011;10137;49.406;19.484;2023-04-06T10:59:31;13.00;;;8.27;;
19951;SDS011;10137;49.406;19.484;2023-04-06T11:01:59;13.10;;;8.27;;
19951;SDS011;10137;49.406;19.484;2023-04-06T11:04:28;19.20;;;9.80;;
19951;SDS011;10137;49.406;19.484;2023-04-06T11:06:56;17.00;;;10.00;;
19951;SDS011;10137;49.406;19.484;2023-04-06T11:09:25;17.10;;;9.23;;
19951;SDS011;10137;49.406;19.484;2023-04-06T11:11:53;17.13;;;9.17;;
19951;SDS011;10137;49.406;19.484;2023-04-06T11:14:23;12.33;;;7.63;;
19951;SDS011;10137;49.406;19.484;2023-04-06T11:16:52;17.43;;;9.80;;
19951;SDS011;10137;49.406;19.484;2023-04-06T11:19:21;17.47;;;10.20;;
19951;SDS011;10137;49.406;19.484;2023-04-06T11:21:49;19.47;;;11.40;;
19951;SDS011;10137;49.406;19.484;2023-04-06T11:24:18;21.87;;;11.07;;
19951;SDS011;10137;49.406;19.484;2023-04-06T11:26:49;17.50;;;10.23;;
19951;SDS011;10137;49.406;19.484;2023-04-06T11:29:22;17.60;;;9.87;;
19951;SDS011;10137;49.406;19.484;2023-04-06T11:31:54;15.37;;;9.17;;
19951;SDS011;10137;49.406;19.484;2023-04-06T11:34:26;16.13;;;10.13;;
19951;SDS011;10137;49.406;19.484;2023-04-06T11:36:59;16.60;;;11.00;;
19951;SDS011;10137;49.406;19.484;2023-04-06T11:39:32;18.30;;;10.80;;
19951;SDS011;10137;49.406;19.484;2023-04-06T11:42:06;16.30;;;10.43;;
19951;SDS011;10137;49.406;19.484;2023-04-06T11:44:36;19.97;;;11.00;;
19951;SDS011;10137;49.406;19.484;2023-04-06T11:47:10;20.63;;;11.70;;
19951;SDS011;10137;49.406;19.484;2023-04-06T11:49:39;20.03;;;11.47;;
19951;SDS011;10137;49.406;19.484;2023-04-06T11:52:18;18.93;;;12.77;;
19951;SDS011;10137;49.406;19.484;2023-04-06T11:54:48;21.50;;;12.23;;
19951;SDS011;10137;49.406;19.484;2023-04-06T11:57:17;22.60;;;12.57;;
19951;SDS011;10137;49.406;19.484;2023-04-06T11:59:47;20.67;;;12.33;;
19951;SDS011;10137;49.406;19.484;2023-04-06T12:02:16;19.03;;;12.30;;
19951;SDS011;10137;49.406;19.484;2023-04-06T12:04:45;20.70;;;12.60;;
19951;SDS011;10137;49.406;19.484;2023-04-06T12:07:13;25.67;;;15.13;;
19951;SDS011;10137;49.406;19.484;2023-04-06T12:09:42;27.70;;;14.30;;
19951;SDS011;10137;49.406;19.484;2023-04-06T12:12:11;29.07;;;14.70;;
19951;SDS011;10137;49.406;19.484;2023-04-06T12:14:39;25.33;;;14.40;;
19951;SDS011;10137;49.406;19.484;2023-04-06T12:17:13;22.40;;;13.77;;
19951;SDS011;10137;49.406;19.484;2023-04-06T12:19:41;23.27;;;13.90;;
19951;SDS011;10137;49.406;19.484;2023-04-06T12:22:08;22.40;;;13.60;;
19951;SDS011;10137;49.406;19.484;2023-04-06T12:24:37;20.17;;;12.63;;
19951;SDS011;10137;49.406;19.484;2023-04-06T12:27:05;23.73;;;13.30;;
19951;SDS011;10137;49.406;19.484;2023-04-06T12:29:38;18.93;;;12.20;;
19951;SDS011;10137;49.406;19.484;2023-04-06T12:32:07;22.13;;;13.13;;
19951;SDS011;10137;49.406;19.484;2023-04-06T12:34:37;22.30;;;12.73;;
19951;SDS011;10137;49.406;19.484;2023-04-06T12:37:06;24.20;;;13.87;;
19951;SDS011;10137;49.406;19.484;2023-04-06T12:39:34;21.40;;;14.33;;
19951;SDS011;10137;49.406;19.484;2023-04-06T12:42:02;29.40;;;16.90;;
19951;SDS011;10137;49.406;19.484;2023-04-06T12:44:31;30.03;;;18.60;;
19951;SDS011;10137;49.406;19.484;2023-04-06T12:46:59;25.70;;;15.13;;
19951;SDS011;10137;49.406;19.484;2023-04-06T12:49:27;29.00;;;17.60;;
19951;SDS011;10137;49.406;19.484;2023-04-06T12:51:57;23.17;;;14.00;;
19951;SDS011;10137;49.406;19.484;2023-04-06T12:54:25;31.60;;;17.43;;
19951;SDS011;10137;49.406;19.484;2023-04-06T12:56:57;32.20;;;18.80;;
19951;SDS011;10137;49.406;19.484;2023-04-06T12:59:30;27.40;;;15.87;;
19951;SDS011;10137;49.406;19.484;2023-04-06T13:02:02;27.83;;;17.07;;
19951;SDS011;10137;49.406;19.484;2023-04-06T13:04:32;28.03;;;16.23;;
19951;SDS011;10137;49.406;19.484;2023-04-06T13:07:02;28.50;;;16.27;;
19951;SDS011;10137;49.406;19.484;2023-04-06T13:09:31;32.87;;;18.43;;
19951;SDS011;10137;49.406;19.484;2023-04-06T13:12:00;28.33;;;15.67;;
19951;SDS011;10137;49.406;19.484;2023-04-06T13:14:29;28.03;;;14.97;;
19951;SDS011;10137;49.406;19.484;2023-04-06T13:16:57;30.17;;;15.83;;
19951;SDS011;10137;49.406;19.484;2023-04-06T13:19:26;34.07;;;16.50;;
19951;SDS011;10137;49.406;19.484;2023-04-06T13:21:53;35.57;;;19.13;;
19951;SDS011;10137;49.406;19.484;2023-04-06T13:24:23;32.73;;;17.53;;
19951;SDS011;10137;49.406;19.484;2023-04-06T13:26:54;30.90;;;16.60;;
19951;SDS011;10137;49.406;19.484;2023-04-06T13:29:23;34.43;;;18.73;;
19951;SDS011;10137;49.406;19.484;2023-04-06T13:31:52;31.63;;;17.87;;
19951;SDS011;10137;49.406;19.484;2023-04-06T13:34:20;32.60;;;18.60;;
19951;SDS011;10137;49.406;19.484;2023-04-06T13:36:48;44.20;;;20.93;;
19951;SDS011;10137;49.406;19.484;2023-04-06T13:39:16;33.63;;;18.53;;
19951;SDS011;10137;49.406;19.484;2023-04-06T13:41:46;35.77;;;20.80;;
19951;SDS011;10137;49.406;19.484;2023-04-06T13:44:14;42.90;;;24.73;;
19951;SDS011;10137;49.406;19.484;2023-04-06T13:46:42;39.20;;;21.53;;
19951;SDS011;10137;49.406;19.484;2023-04-06T13:49:10;35.73;;;19.43;;
19951;SDS011;10137;49.406;19.484;2023-04-06T13:51:38;34.20;;;19.67;;
19951;SDS011;10137;49.406;19.484;2023-04-06T13:54:07;30.23;;;17.30;;
19951;SDS011;10137;49.406;19.484;2023-04-06T13:56:36;29.87;;;16.57;;
19951;SDS011;10137;49.406;19.484;2023-04-06T13:59:05;25.97;;;15.23;;
19951;SDS011;10137;49.406;19.484;2023-04-06T14:01:33;29.57;;;15.60;;
19951;SDS011;10137;49.406;19.484;2023-04-06T14:04:02;27.70;;;14.87;;
19951;SDS011;10137;49.406;19.484;2023-04-06T14:06:30;30.00;;;16.40;;
19951;SDS011;10137;49.406;19.484;2023-04-06T14:08:59;32.77;;;15.60;;
19951;SDS011;10137;49.406;19.484;2023-04-06T14:11:27;29.80;;;15.40;;
19951;SDS011;10137;49.406;19.484;2023-04-06T14:13:56;33.60;;;19.83;;
19951;SDS011;10137;49.406;19.484;2023-04-06T14:16:25;28.70;;;15.90;;
19951;SDS011;10137;49.406;19.484;2023-04-06T14:18:54;31.83;;;18.20;;
19951;SDS011;10137;49.406;19.484;2023-04-06T14:21:25;28.70;;;16.53;;
19951;SDS011;10137;49.406;19.484;2023-04-06T14:23:53;19.47;;;12.27;;
19951;SDS011;10137;49.406;19.484;2023-04-06T14:26:21;16.73;;;10.77;;